Terminal Aerodrome Forecast
Issued by NWS Spokane, WA

Home | Current Version | Previous Version | Text Only | Print | Product List | Glossary On
Versions: 1 2 3 4 5 6 7 8 9 10 11 12 13 14 15 16 17
000
FTUS46 KOTX 091740
TAFEAT
TAF
KEAT 091740Z 0918/1018 00000KT P6SM VCSH OVC024
     FM092200 VRB03KT 5SM -SN SCT008 OVC018
     FM100300 VRB03KT 4SM -SN OVC008
     FM101200 31003KT 6SM BR SCT008 BKN015=

USA.gov is the U.S. government's official web portal to all federal, state and local government web resources and services.